Time;durP1;ratioP1;P1;durP2;ratioP2;P2;SDS_P1;SDS_P2;PMS_P1;PMS_P2;Temp;Humidity;BMP_temperature;BMP_pressure;BME280_temperature;BME280_humidity;BME280_pressure;Samples;Min_cycle;Max_cycle;Signal;HPM_P1;HPM_P2
2024/01/29 00:00:24;;;;;;;28.35;13.20;;;7.40;99.90;;;6.78;100.00;101989.41;4183916;28;20059;-72
2024/01/29 00:02:25;;;;;;;22.65;11.63;;;7.50;99.90;;;6.82;100.00;101992.69;4200446;28;20028;-72
2024/01/29 00:04:26;;;;;;;17.63;11.30;;;7.50;99.90;;;6.85;100.00;101990.69;4185456;28;20025;-72
2024/01/29 00:06:27;;;;;;;24.52;12.68;;;7.50;99.90;;;6.85;100.00;101992.47;4185560;28;20025;-72
2024/01/29 00:08:27;;;;;;;22.80;11.93;;;7.60;99.90;;;6.83;100.00;101994.38;4185405;28;20025;-72
2024/01/29 00:10:28;;;;;;;20.77;11.68;;;7.60;99.90;;;6.86;100.00;101994.16;4184019;28;20029;-72
2024/01/29 00:12:29;;;;;;;16.83;11.43;;;7.50;99.90;;;6.89;100.00;102002.69;4185324;28;20025;-72
2024/01/29 00:14:30;;;;;;;20.63;11.25;;;7.60;99.90;;;6.94;100.00;101997.97;4185385;28;20033;-72
2024/01/29 00:16:31;;;;;;;26.10;12.07;;;7.60;99.90;;;6.98;100.00;102003.84;4185002;28;20123;-72
2024/01/29 00:18:32;;;;;;;26.23;12.82;;;7.70;99.90;;;7.03;100.00;101996.50;4185165;28;20037;-72
2024/01/29 00:20:32;;;;;;;17.40;11.02;;;7.70;99.90;;;7.08;100.00;102004.91;4183989;28;20028;-72
2024/01/29 00:22:33;;;;;;;21.63;12.25;;;7.80;99.90;;;7.12;100.00;101998.50;4184748;28;20029;-72
2024/01/29 00:24:34;;;;;;;24.13;12.65;;;7.80;99.90;;;7.18;100.00;101998.09;4183776;28;20025;-72
2024/01/29 00:26:39;;;;;;;40.58;16.98;;;7.90;99.90;;;7.23;100.00;101996.00;4185033;28;20036;-72
2024/01/29 00:28:40;;;;;;;27.55;15.50;;;7.90;99.90;;;7.30;100.00;102002.50;4172106;28;20022;-72
2024/01/29 00:30:40;;;;;;;26.50;12.23;;;7.90;99.90;;;7.34;100.00;102004.00;4184995;28;20396;-72
2024/01/29 00:32:41;;;;;;;22.15;11.60;;;8.00;99.90;;;7.36;100.00;102003.88;4185128;28;20044;-72
2024/01/29 00:34:42;;;;;;;20.42;11.02;;;8.00;99.90;;;7.43;100.00;102006.00;4183916;28;20064;-72
2024/01/29 00:36:43;;;;;;;23.50;11.38;;;8.10;99.90;;;7.49;100.00;102004.72;4178866;28;20032;-72
2024/01/29 00:38:44;;;;;;;15.63;9.95;;;8.10;99.90;;;7.53;100.00;102003.56;4183867;28;20029;-72
2024/01/29 00:40:45;;;;;;;14.48;9.55;;;8.20;99.90;;;7.58;100.00;101996.22;4184077;28;20025;-72
2024/01/29 00:42:46;;;;;;;14.63;8.82;;;8.20;99.90;;;7.61;100.00;101996.84;4184961;28;20033;-72
2024/01/29 00:44:49;;;;;;;17.20;9.85;;;8.30;99.90;;;7.65;100.00;101992.22;4183623;28;20025;-72
2024/01/29 00:46:50;;;;;;;16.45;10.55;;;8.30;99.90;;;7.71;100.00;101994.41;4176289;28;20095;-72
2024/01/29 00:48:51;;;;;;;14.98;9.65;;;8.30;99.90;;;7.73;100.00;101993.38;4185002;28;20025;-72
2024/01/29 00:50:52;;;;;;;19.60;10.45;;;8.40;99.90;;;7.75;100.00;101986.22;4184931;28;20028;-72
2024/01/29 00:52:53;;;;;;;22.15;11.07;;;8.40;99.90;;;7.81;100.00;101995.47;4185624;28;20025;-72
2024/01/29 00:54:54;;;;;;;21.55;9.82;;;8.50;99.90;;;7.88;100.00;101990.63;4187060;28;20068;-72
2024/01/29 00:56:55;;;;;;;25.98;11.30;;;8.50;99.90;;;7.93;100.00;101991.97;4188190;28;20021;-72
2024/01/29 00:58:56;;;;;;;27.90;11.80;;;8.60;99.90;;;8.02;100.00;101998.34;4188207;28;20380;-72
2024/01/29 01:00:57;;;;;;;22.70;11.63;;;8.60;99.90;;;8.09;100.00;101994.34;4187977;28;20017;-72
2024/01/29 01:02:57;;;;;;;24.70;11.57;;;8.70;99.90;;;8.15;100.00;101993.91;4188272;28;20044;-72
2024/01/29 01:04:58;;;;;;;28.73;12.73;;;8.80;99.90;;;8.24;100.00;101993.25;4188348;28;20014;-72
2024/01/29 01:06:59;;;;;;;33.90;12.82;;;8.80;99.90;;;8.26;100.00;101992.19;4188069;28;20075;-72
2024/01/29 01:09:00;;;;;;;28.05;12.60;;;8.90;99.90;;;8.29;100.00;101989.38;4186770;28;20025;-72
2024/01/29 01:11:01;;;;;;;25.20;11.90;;;9.00;99.90;;;8.36;100.00;101991.56;4186944;28;20029;-72
2024/01/29 01:13:01;;;;;;;31.98;12.50;;;9.00;99.90;;;8.39;100.00;101997.44;4186917;28;20032;-72
2024/01/29 01:15:03;;;;;;;37.05;14.00;;;9.00;99.90;;;8.41;100.00;101990.28;4186590;28;20044;-72
2024/01/29 01:17:04;;;;;;;21.40;11.73;;;9.00;99.90;;;8.43;100.00;101991.00;4187794;28;20074;-72
2024/01/29 01:19:05;;;;;;;26.50;11.85;;;9.10;99.90;;;8.43;100.00;101990.16;4188083;28;20487;-72
2024/01/29 01:21:06;;;;;;;26.27;11.55;;;9.10;99.90;;;8.44;100.00;101978.69;4187815;28;20021;-72
2024/01/29 01:23:06;;;;;;;27.75;12.82;;;9.10;99.90;;;8.46;100.00;101988.13;4186688;28;20504;-72
2024/01/29 01:25:08;;;;;;;30.27;10.68;;;9.10;99.90;;;8.49;100.00;101987.06;4169911;28;20508;-72
2024/01/29 01:27:10;;;;;;;18.35;9.68;;;9.10;99.90;;;8.48;100.00;101981.00;4187679;28;20100;-72
2024/01/29 01:29:11;;;;;;;27.23;10.80;;;9.20;99.90;;;8.53;100.00;101989.38;4186758;28;20118;-72
2024/01/29 01:31:11;;;;;;;22.98;10.27;;;9.20;99.90;;;8.55;100.00;101995.34;4187685;28;20473;-72
2024/01/29 01:33:12;;;;;;;23.90;10.35;;;9.20;99.90;;;8.58;100.00;101987.25;4186543;28;20601;-72
2024/01/29 01:35:13;;;;;;;19.83;10.07;;;9.20;99.90;;;8.60;100.00;101980.06;4187701;28;20029;-72
2024/01/29 01:37:14;;;;;;;25.25;10.48;;;9.20;99.90;;;8.60;100.00;101982.69;4187751;28;20021;-72
2024/01/29 01:39:15;;;;;;;27.63;10.43;;;9.30;99.90;;;8.65;100.00;101988.47;4186437;28;20123;-72
2024/01/29 01:41:16;;;;;;;16.67;8.60;;;9.30;99.90;;;8.64;100.00;101989.41;4187419;28;20021;-72
2024/01/29 01:43:25;;;;;;;21.58;9.82;;;9.30;99.90;;;8.69;100.00;101989.91;4183057;28;20029;-72
2024/01/29 01:45:28;;;;;;;28.00;10.75;;;9.30;99.90;;;8.66;100.00;101990.13;4187419;28;20099;-72
2024/01/29 01:47:29;;;;;;;16.98;9.13;;;9.30;99.90;;;8.66;100.00;102000.66;4187338;28;20112;-72
2024/01/29 01:49:30;;;;;;;38.40;11.65;;;9.30;99.90;;;8.67;100.00;101999.72;4187349;28;20025;-72
2024/01/29 01:51:31;;;;;;;21.77;10.18;;;9.30;99.90;;;8.66;100.00;102000.66;4186237;28;20100;-72
2024/01/29 01:53:36;;;;;;;22.60;9.75;;;9.30;99.90;;;8.67;100.00;101996.25;4187462;28;20051;-72
2024/01/29 01:55:37;;;;;;;20.83;11.05;;;9.30;99.90;;;8.67;100.00;101990.97;4185923;28;20025;-72
2024/01/29 01:57:40;;;;;;;32.50;11.93;;;9.30;99.90;;;8.67;100.00;101991.81;4187117;28;20025;-72
2024/01/29 01:59:40;;;;;;;26.23;10.98;;;9.30;99.90;;;8.67;100.00;101997.09;4186261;28;20036;-72
2024/01/29 02:01:42;;;;;;;29.02;11.48;;;9.30;99.90;;;8.65;100.00;101993.75;4186933;28;20029;-72
2024/01/29 02:03:43;;;;;;;36.65;12.07;;;9.30;99.90;;;8.69;100.00;101995.16;4185730;28;20025;-72
2024/01/29 02:05:45;;;;;;;34.53;11.85;;;9.30;99.90;;;8.70;100.00;101991.59;4187088;28;20029;-72
2024/01/29 02:07:46;;;;;;;31.55;12.68;;;9.30;99.90;;;8.69;100.00;101995.16;4176000;28;20029;-72
2024/01/29 02:09:48;;;;;;;28.13;11.38;;;9.40;99.90;;;8.73;100.00;102001.88;4185972;28;20404;-72
2024/01/29 02:11:48;;;;;;;24.25;11.77;;;9.40;99.90;;;8.73;100.00;102004.53;4187161;28;20492;-72
2024/01/29 02:13:49;;;;;;;29.23;13.50;;;9.40;99.90;;;8.73;100.00;102007.16;4187022;28;20025;-72
2024/01/29 02:15:50;;;;;;;37.50;13.25;;;9.40;99.90;;;8.75;100.00;101993.91;4186893;28;20029;-72
2024/01/29 02:17:51;;;;;;;28.85;12.70;;;9.40;99.90;;;8.77;100.00;102000.72;4178611;28;20029;-72
2024/01/29 02:19:52;;;;;;;41.67;13.00;;;9.40;99.90;;;8.75;100.00;101989.44;4186998;28;20037;-72
2024/01/29 02:21:53;;;;;;;52.50;15.43;;;9.50;99.90;;;8.79;100.00;101992.69;4185717;28;20033;-72
2024/01/29 02:23:54;;;;;;;43.15;13.45;;;9.40;99.90;;;8.80;100.00;101987.34;4185822;28;20025;-72
2024/01/29 02:25:55;;;;;;;31.08;12.57;;;9.50;99.90;;;8.82;100.00;101993.31;4186956;28;20394;-72
2024/01/29 02:27:56;;;;;;;31.13;13.80;;;9.50;99.90;;;8.85;100.00;101987.81;4180989;28;20060;-72
2024/01/29 02:29:57;;;;;;;42.55;16.48;;;9.50;99.90;;;8.87;100.00;101985.91;4168674;28;20021;-72
2024/01/29 02:31:57;;;;;;;56.28;15.50;;;9.50;99.90;;;8.94;100.00;101988.09;4201539;28;20035;-72
2024/01/29 02:33:58;;;;;;;46.30;15.73;;;9.60;99.90;;;8.96;100.00;101983.56;4185395;28;20102;-72
2024/01/29 02:35:59;;;;;;;46.28;16.23;;;9.60;99.90;;;8.99;100.00;101978.88;4186745;28;20025;-72
2024/01/29 02:38:00;;;;;;;52.97;17.02;;;9.60;99.90;;;9.02;100.00;101980.47;4186430;28;20039;-72
2024/01/29 02:40:02;;;;;;;76.80;18.80;;;9.60;99.90;;;9.04;100.00;101978.56;4185576;28;20029;-72
2024/01/29 02:42:03;;;;;;;50.53;18.05;;;9.70;99.90;;;9.07;100.00;101979.16;4185226;28;20120;-72
2024/01/29 02:44:05;;;;;;;51.67;17.95;;;9.70;99.90;;;9.07;100.00;101973.91;4185344;28;20598;-72
2024/01/29 02:46:06;;;;;;;39.92;17.13;;;9.70;99.90;;;9.10;100.00;101972.81;4185958;28;20103;-72
2024/01/29 02:48:07;;;;;;;35.10;16.83;;;9.70;99.90;;;9.13;100.00;101988.38;4186778;28;20028;-72
2024/01/29 02:50:08;;;;;;;40.45;17.48;;;9.70;99.90;;;9.17;100.00;101980.13;4185170;28;20029;-72
2024/01/29 02:52:10;;;;;;;38.47;18.25;;;9.80;99.90;;;9.16;100.00;101977.63;4186625;28;20042;-72
2024/01/29 02:54:11;;;;;;;46.55;19.52;;;9.80;99.90;;;9.19;100.00;101980.03;4185268;28;20039;-72
2024/01/29 02:56:11;;;;;;;49.67;19.50;;;9.80;99.90;;;9.20;100.00;101984.34;4186282;28;20485;-72
2024/01/29 02:58:12;;;;;;;43.08;18.17;;;9.80;99.90;;;9.19;100.00;101978.25;4186466;28;20473;-72
2024/01/29 03:00:13;;;;;;;42.95;19.45;;;9.90;99.90;;;9.22;100.00;101985.91;4185049;28;20416;-72
2024/01/29 03:02:14;;;;;;;44.67;18.85;;;9.90;99.90;;;9.24;100.00;101983.97;4186276;28;20037;-72
2024/01/29 03:04:15;;;;;;;33.47;16.95;;;9.90;99.90;;;9.25;100.00;101984.81;4186346;28;20029;-72
2024/01/29 03:06:16;;;;;;;52.72;19.88;;;9.90;99.90;;;9.26;100.00;101978.59;4186240;28;20037;-72
2024/01/29 03:08:17;;;;;;;52.65;21.02;;;9.90;99.90;;;9.29;100.00;101991.50;4185068;28;20028;-72
2024/01/29 03:10:18;;;;;;;51.25;20.17;;;9.90;99.90;;;9.27;100.00;101985.53;4186371;28;20104;-72
2024/01/29 03:12:19;;;;;;;43.90;18.83;;;9.90;99.90;;;9.28;100.00;101989.84;4184824;28;20029;-72
2024/01/29 03:14:20;;;;;;;43.15;18.42;;;9.90;99.90;;;9.27;100.00;101989.00;4186031;28;20036;-72
2024/01/29 03:16:21;;;;;;;48.10;17.80;;;10.00;99.90;;;9.28;100.00;101988.06;4185394;28;20025;-72
2024/01/29 03:18:21;;;;;;;37.05;17.77;;;9.90;99.90;;;9.28;100.00;101989.84;4184802;28;20025;-72
2024/01/29 03:20:22;;;;;;;42.38;18.20;;;10.00;99.90;;;9.30;100.00;101995.84;4185892;28;20029;-72
2024/01/29 03:22:23;;;;;;;35.80;17.83;;;10.00;99.90;;;9.31;100.00;101995.72;4185969;28;20040;-72
2024/01/29 03:24:24;;;;;;;32.45;15.93;;;10.00;99.90;;;9.30;100.00;101996.69;4185989;28;20025;-72
2024/01/29 03:26:25;;;;;;;35.17;17.20;;;10.00;99.90;;;9.28;100.00;101990.69;4182258;28;20510;-72
2024/01/29 03:28:26;;;;;;;31.00;16.83;;;10.00;99.90;;;9.31;100.00;101997.53;4166779;28;20136;-72
2024/01/29 03:30:27;;;;;;;28.02;15.57;;;10.00;99.90;;;9.28;100.00;101984.59;4185769;28;20032;-72
2024/01/29 03:32:28;;;;;;;36.28;16.88;;;10.00;99.90;;;9.31;100.00;101994.88;4184938;28;20500;-72
2024/01/29 03:34:29;;;;;;;26.42;15.35;;;10.00;99.90;;;9.29;100.00;101988.88;4185882;28;20028;-72
2024/01/29 03:36:29;;;;;;;31.15;14.32;;;9.90;99.90;;;9.28;100.00;101992.50;4185673;28;20036;-72
2024/01/29 03:38:31;;;;;;;24.50;13.60;;;10.00;99.90;;;9.28;100.00;101997.75;4181330;28;20515;-72
2024/01/29 03:40:31;;;;;;;22.88;12.13;;;9.90;99.90;;;9.28;100.00;101995.13;4185719;28;20032;-72
2024/01/29 03:42:32;;;;;;;25.65;14.23;;;9.90;99.90;;;9.29;100.00;101995.00;4185593;28;20491;-72
2024/01/29 03:44:33;;;;;;;35.53;15.13;;;9.90;99.90;;;9.24;100.00;101991.88;4185548;28;20027;-72
2024/01/29 03:46:34;;;;;;;25.08;12.73;;;9.90;99.90;;;9.24;100.00;101991.03;4184986;28;20045;-72
2024/01/29 03:48:35;;;;;;;25.83;12.90;;;9.90;99.90;;;9.26;100.00;101994.38;4184341;28;20024;-72
2024/01/29 03:50:35;;;;;;;25.42;12.68;;;9.90;99.90;;;9.25;100.00;101993.56;4184617;28;20029;-72
2024/01/29 03:52:36;;;;;;;20.23;12.23;;;9.90;99.90;;;9.24;100.00;101994.50;4185641;28;20025;-72
2024/01/29 03:54:37;;;;;;;26.13;12.15;;;9.90;99.90;;;9.26;100.00;101995.22;4184490;28;20044;-72
2024/01/29 03:56:38;;;;;;;21.40;12.05;;;9.90;99.90;;;9.25;100.00;101988.31;4185376;28;20018;-72
2024/01/29 03:58:39;;;;;;;21.23;11.93;;;9.90;99.90;;;9.25;100.00;101996.19;4185478;28;20048;-72
2024/01/29 04:00:40;;;;;;;19.75;12.20;;;9.90;99.90;;;9.25;100.00;101987.47;4183954;28;20065;-72
2024/01/29 04:02:42;;;;;;;24.83;11.57;;;9.90;99.90;;;9.23;100.00;101989.34;4184388;28;20032;-72
2024/01/29 04:04:43;;;;;;;17.63;11.07;;;9.90;99.90;;;9.23;100.00;101995.47;4184192;28;20032;-72
2024/01/29 04:06:46;;;;;;;24.40;12.60;;;9.90;99.90;;;9.24;100.00;102001.56;4185322;28;20021;-72
2024/01/29 04:08:47;;;;;;;25.80;12.60;;;9.90;99.90;;;9.22;100.00;102000.84;4185256;28;20040;-72
2024/01/29 04:10:48;;;;;;;22.38;12.02;;;9.90;99.90;;;9.22;100.00;102000.84;4167870;28;20022;-72
2024/01/29 04:12:49;;;;;;;23.50;11.57;;;9.90;99.90;;;9.19;100.00;101995.81;4185529;28;20484;-72
2024/01/29 04:14:50;;;;;;;19.40;11.82;;;9.90;99.90;;;9.20;100.00;101998.31;4183960;28;20075;-72
2024/01/29 04:16:50;;;;;;;19.77;11.68;;;9.90;99.90;;;9.20;100.00;102000.97;4178897;28;20068;-72
2024/01/29 04:18:51;;;;;;;16.83;10.25;;;9.90;99.90;;;9.18;100.00;101996.75;4185475;28;20365;-72
2024/01/29 04:20:52;;;;;;;22.65;11.43;;;9.80;99.90;;;9.19;100.00;101994.03;4184146;28;20021;-72
2024/01/29 04:22:53;;;;;;;23.73;11.68;;;9.90;99.90;;;9.19;100.00;101994.03;4185071;28;20067;-72
2024/01/29 04:24:54;;;;;;;25.38;12.38;;;9.90;99.90;;;9.20;100.00;101997.50;4185128;28;20033;-72
2024/01/29 04:26:55;;;;;;;22.65;11.43;;;9.80;99.90;;;9.18;100.00;101996.75;4185001;28;20078;-72
2024/01/29 04:28:56;;;;;;;19.60;11.45;;;9.80;99.90;;;9.14;100.00;101995.34;4185367;28;20029;-72
2024/01/29 04:30:57;;;;;;;19.33;10.50;;;9.80;99.90;;;9.14;100.00;101990.06;4183788;28;20523;-72
2024/01/29 04:32:58;;;;;;;16.60;11.07;;;9.80;99.90;;;9.11;100.00;101992.94;4185143;28;20108;-72
2024/01/29 04:34:59;;;;;;;23.15;11.80;;;9.80;99.90;;;9.07;100.00;101999.38;4183683;28;20025;-72
2024/01/29 04:37:00;;;;;;;18.40;10.20;;;9.80;99.90;;;9.05;100.00;101993.41;4185062;28;20032;-72
2024/01/29 04:39:00;;;;;;;22.42;11.05;;;9.70;99.90;;;9.01;100.00;101994.56;4185082;28;20083;-72
2024/01/29 04:41:01;;;;;;;23.38;11.63;;;9.70;99.90;;;8.97;100.00;101990.50;4182898;28;20074;-72
2024/01/29 04:43:02;;;;;;;18.60;11.95;;;9.70;99.90;;;8.95;100.00;101990.63;4183734;28;20029;-72
2024/01/29 04:45:04;;;;;;;20.88;10.70;;;9.70;99.90;;;8.83;100.00;101989.75;4184774;28;20036;-72
2024/01/29 04:47:06;;;;;;;17.13;11.02;;;9.60;99.90;;;8.76;100.00;101980.63;4184797;28;20063;-72
2024/01/29 04:49:07;;;;;;;20.45;9.77;;;9.50;99.90;;;8.67;100.00;101978.66;4184611;28;20025;-72
2024/01/29 04:51:09;;;;;;;18.23;10.73;;;9.40;99.90;;;8.57;100.00;101972.41;4184876;28;20387;-72
2024/01/29 04:53:10;;;;;;;16.60;10.13;;;9.30;99.90;;;8.51;100.00;101975.47;4183885;28;20033;-72
2024/01/29 04:55:12;;;;;;;24.25;11.23;;;9.20;99.90;;;8.47;100.00;101979.31;4185046;28;20029;-72
2024/01/29 04:57:12;;;;;;;24.60;13.02;;;9.20;99.90;;;8.43;100.00;101972.59;4184826;28;20025;-72
2024/01/29 04:59:13;;;;;;;15.30;9.73;;;9.20;99.90;;;8.36;100.00;101968.75;4183508;28;20397;-72
2024/01/29 05:01:14;;;;;;;19.88;11.38;;;9.10;99.90;;;8.30;100.00;101971.81;4184441;28;20029;-72
2024/01/29 05:03:15;;;;;;;16.40;10.23;;;9.00;99.90;;;8.25;100.00;101973.88;4184877;28;20091;-72
2024/01/29 05:05:16;;;;;;;15.57;10.10;;;9.00;99.90;;;8.18;100.00;101972.66;4184927;28;20025;-72
2024/01/29 05:07:17;;;;;;;15.80;9.55;;;8.90;99.90;;;8.14;100.00;101977.31;4176634;28;20030;-72
2024/01/29 05:09:19;;;;;;;17.77;10.65;;;8.90;99.90;;;8.09;100.00;101983.84;4183850;28;20526;-72
2024/01/29 05:11:20;;;;;;;18.45;10.25;;;8.80;99.90;;;8.03;100.00;101976.41;4184911;28;20521;-72
2024/01/29 05:13:20;;;;;;;18.13;10.40;;;8.80;99.90;;;7.99;100.00;101980.19;4183671;28;20029;-72
2024/01/29 05:15:21;;;;;;;22.83;12.13;;;8.70;99.90;;;7.95;100.00;101974.28;4184557;28;20028;-72
2024/01/29 05:17:22;;;;;;;23.17;12.07;;;8.70;99.90;;;7.95;100.00;101983.97;4178919;28;20033;-72
2024/01/29 05:19:23;;;;;;;30.92;15.43;;;8.70;99.90;;;7.91;100.00;101979.88;4184824;28;20029;-72
2024/01/29 05:21:24;;;;;;;25.50;13.70;;;8.60;99.90;;;7.88;100.00;101973.06;4184677;28;20036;-72
2024/01/29 05:23:25;;;;;;;22.75;13.35;;;8.60;99.90;;;7.86;100.00;101974.94;4184848;28;20079;-72
2024/01/29 05:25:25;;;;;;;23.27;12.27;;;8.60;99.90;;;7.90;100.00;101978.19;4183791;28;20028;-72
2024/01/29 05:27:26;;;;;;;25.08;13.35;;;8.60;99.90;;;7.88;100.00;101980.94;4184713;28;20036;-72
2024/01/29 05:29:27;;;;;;;27.73;12.90;;;8.60;99.90;;;7.87;100.00;101976.63;4184726;28;20036;-72
2024/01/29 05:31:28;;;;;;;17.88;11.20;;;8.60;99.90;;;7.88;100.00;101972.22;4183494;28;20029;-72
2024/01/29 05:33:29;;;;;;;20.63;10.45;;;8.60;99.90;;;7.87;100.00;101974.00;4184643;28;20033;-72
2024/01/29 05:35:29;;;;;;;21.58;10.73;;;8.60;99.90;;;7.89;100.00;101982.59;4184735;28;20430;-72
2024/01/29 05:37:32;;;;;;;20.13;10.60;;;8.60;99.90;;;7.87;100.00;101973.16;4184614;28;20028;-72
2024/01/29 05:39:32;;;;;;;18.00;11.05;;;8.60;99.90;;;7.88;100.00;101975.69;4185703;28;20694;-72
2024/01/29 05:41:33;;;;;;;23.63;12.35;;;8.60;99.90;;;7.89;100.00;101977.34;4187166;28;20037;-72
2024/01/29 05:43:34;;;;;;;27.10;12.80;;;8.60;99.90;;;7.86;100.00;101974.09;4187645;28;20546;-72
2024/01/29 05:45:35;;;;;;;18.75;10.45;;;8.60;99.90;;;7.85;100.00;101982.94;4185563;28;20512;-72
2024/01/29 05:47:37;;;;;;;16.98;9.65;;;8.60;99.90;;;7.86;100.00;101981.97;4187481;28;20045;-72
2024/01/29 05:49:37;;;;;;;19.42;10.13;;;8.60;99.90;;;7.86;100.00;101987.25;4187262;28;20021;-72
2024/01/29 05:51:38;;;;;;;17.23;11.40;;;8.50;99.90;;;7.83;100.00;101985.66;4187618;28;20032;-72
2024/01/29 05:53:39;;;;;;;20.35;11.07;;;8.50;99.90;;;7.80;100.00;101984.09;4187454;28;20083;-72
2024/01/29 05:55:40;;;;;;;23.90;11.63;;;8.50;99.90;;;7.79;100.00;101987.66;4187197;28;20412;-72
2024/01/29 05:57:41;;;;;;;19.88;11.98;;;8.50;99.90;;;7.78;100.00;101991.25;4177223;28;20404;-72
2024/01/29 05:59:42;;;;;;;18.90;11.82;;;8.50;99.90;;;7.79;100.00;101998.19;4185970;28;20079;-72
2024/01/29 06:01:43;;;;;;;24.65;12.13;;;8.50;99.90;;;7.74;100.00;101988.94;4187260;28;20059;-72
2024/01/29 06:03:44;;;;;;;23.25;11.45;;;8.40;99.90;;;7.70;100.00;101983.09;4187226;28;20033;-72
2024/01/29 06:05:45;;;;;;;21.45;10.07;;;8.40;99.90;;;7.68;100.00;101997.25;4187077;28;20024;-72
2024/01/29 06:07:46;;;;;;;20.77;10.32;;;8.40;99.90;;;7.65;100.00;101997.47;4187162;28;20036;-72
2024/01/29 06:09:47;;;;;;;18.00;9.30;;;8.30;99.90;;;7.61;100.00;101994.22;4187168;28;20037;-72
2024/01/29 06:11:51;;;;;;;14.68;9.32;;;8.30;99.90;;;7.55;100.00;101991.19;4187118;28;20040;-72
2024/01/29 06:13:52;;;;;;;;;;;8.30;99.90;;;7.47;100.00;101998.72;4186202;28;20087;-72
2024/01/29 06:15:53;;;;;;;16.85;9.52;;;8.20;99.90;;;7.40;100.00;101985.22;4186992;28;19917;-72
2024/01/29 06:17:54;;;;;;;17.75;9.10;;;8.20;99.90;;;7.34;100.00;101998.75;4182465;28;20036;-72
2024/01/29 06:19:55;;;;;;;13.38;9.18;;;8.00;99.90;;;7.27;100.00;101989.59;4186190;28;20059;-72
2024/01/29 06:21:55;;;;;;;20.35;9.70;;;8.00;99.90;;;7.22;100.00;101996.97;4186802;28;20029;-72
2024/01/29 06:23:56;;;;;;;13.77;8.63;;;7.90;99.90;;;7.16;100.00;102002.63;4187300;28;20032;-72
2024/01/29 06:25:57;;;;;;;16.48;9.77;;;7.90;99.90;;;7.15;100.00;102003.56;4169106;28;20021;-72
2024/01/29 06:27:58;;;;;;;22.33;10.63;;;7.90;99.90;;;7.14;100.00;102015.81;4186837;28;20035;-72
2024/01/29 06:29:59;;;;;;;15.25;9.93;;;7.80;99.90;;;7.07;100.00;102013.72;4186784;28;20029;-72
2024/01/29 06:32:01;;;;;;;16.10;9.30;;;7.80;99.90;;;7.00;100.00;102009.81;4186952;28;20017;-72
2024/01/29 06:34:03;;;;;;;20.02;10.40;;;7.70;99.90;;;6.97;100.00;102007.41;4185833;28;20025;-72
2024/01/29 06:36:06;;;;;;;14.45;9.30;;;7.60;99.90;;;6.91;100.00;102013.91;4182659;28;20032;-72
2024/01/29 06:38:07;;;;;;;15.82;8.88;;;7.60;99.90;;;6.89;100.00;102018.41;4181600;28;20132;-72
2024/01/29 06:40:08;;;;;;;16.40;8.57;;;7.60;99.90;;;6.84;100.00;102014.41;4186305;28;20075;-72
2024/01/29 06:42:09;;;;;;;13.52;8.82;;;7.50;99.90;;;6.79;100.00;102009.47;4186486;28;20030;-72
2024/01/29 06:44:10;;;;;;;14.63;8.73;;;7.50;99.90;;;6.77;100.00;102011.34;4186602;28;20404;-71
2024/01/29 06:46:11;;;;;;;14.77;9.30;;;7.40;99.90;;;6.72;100.00;102013.41;4185944;28;20400;-72
2024/01/29 06:48:12;;;;;;;17.58;9.13;;;7.40;99.90;;;6.72;100.00;102013.41;4186418;28;20029;-71
2024/01/29 06:50:13;;;;;;;20.10;10.52;;;7.40;99.90;;;6.72;100.00;102016.03;4185493;28;20024;-71
2024/01/29 06:52:13;;;;;;;17.25;9.88;;;7.40;99.90;;;6.68;100.00;102006.72;4186216;28;20033;-72
2024/01/29 06:54:15;;;;;;;15.73;9.25;;;7.40;99.90;;;6.65;100.00;102002.50;4186586;28;20033;-72
2024/01/29 06:56:16;;;;;;;12.10;8.30;;;7.40;99.90;;;6.66;100.00;102004.16;4186389;28;20025;-72
2024/01/29 06:58:17;;;;;;;18.15;9.93;;;7.30;99.90;;;6.61;100.00;101995.78;4186371;28;20036;-72
2024/01/29 07:00:18;;;;;;;17.17;9.48;;;7.30;99.90;;;6.60;100.00;101994.09;4184830;28;20436;-72
2024/01/29 07:02:19;;;;;;;19.35;10.20;;;7.30;99.90;;;6.59;100.00;101997.66;4185121;28;20075;-72
2024/01/29 07:04:20;;;;;;;19.77;10.45;;;7.30;99.90;;;6.59;100.00;101989.81;4185216;28;20025;-72
2024/01/29 07:06:20;;;;;;;16.27;9.82;;;7.30;99.90;;;6.60;100.00;101990.66;4185528;28;20075;-72
2024/01/29 07:08:21;;;;;;;17.63;10.10;;;7.30;99.90;;;6.60;100.00;101994.09;4186125;28;20032;-72
2024/01/29 07:10:22;;;;;;;16.48;10.00;;;7.30;99.90;;;6.62;100.00;101992.22;4185123;28;20033;-72
2024/01/29 07:12:23;;;;;;;20.40;10.85;;;7.30;99.90;;;6.65;100.00;101986.78;4186256;28;20508;-72
2024/01/29 07:14:24;;;;;;;19.67;10.05;;;7.40;99.90;;;6.64;100.00;101990.34;4186282;28;20055;-72
2024/01/29 07:16:25;;;;;;;15.13;9.02;;;7.40;99.90;;;6.61;100.00;101993.16;4185966;28;20025;-72
2024/01/29 07:18:26;;;;;;;15.07;9.77;;;7.40;99.90;;;6.64;100.00;101992.94;4182219;28;20025;-71
2024/01/29 07:20:29;;;;;;;14.63;9.38;;;7.40;99.90;;;6.64;100.00;101990.34;4184716;28;20032;-71
2024/01/29 07:22:37;;;;;;;21.55;10.77;;;7.40;99.90;;;6.63;100.00;101988.63;4186134;28;20029;-71
2024/01/29 07:24:37;;;;;;;21.80;10.15;;;7.40;99.90;;;6.68;100.00;101988.34;4184988;28;20057;-72
2024/01/29 07:26:38;;;;;;;20.73;12.00;;;7.40;99.90;;;6.72;100.00;101996.88;4185842;28;20051;-71
2024/01/29 07:28:39;;;;;;;19.92;11.00;;;7.40;99.90;;;6.75;100.00;101991.41;4184545;28;20052;-71
2024/01/29 07:30:40;;;;;;;20.08;11.35;;;7.50;99.90;;;6.74;100.00;101990.56;4184327;28;20123;-71
2024/01/29 07:32:41;;;;;;;25.45;10.88;;;7.50;99.90;;;6.74;100.00;101987.09;4186090;28;20021;-71
2024/01/29 07:34:42;;;;;;;20.48;11.27;;;7.50;99.90;;;6.80;100.00;101997.19;4176826;28;20037;-70
2024/01/29 07:36:43;;;;;;;19.67;10.18;;;7.50;99.90;;;6.83;100.00;101992.59;4184920;28;20037;-70
2024/01/29 07:38:44;;;;;;;20.00;11.20;;;7.50;99.90;;;6.84;100.00;101996.06;4185567;28;20025;-70
2024/01/29 07:40:45;;;;;;;23.65;10.52;;;7.60;99.90;;;6.80;100.00;101999.81;4184040;28;20029;-70
2024/01/29 07:42:47;;;;;;;20.20;10.45;;;7.50;99.90;;;6.79;100.00;102003.38;4183851;28;20029;-71
2024/01/29 07:44:49;;;;;;;21.38;11.20;;;7.50;99.90;;;6.75;100.00;102002.72;4182977;28;20032;-71
2024/01/29 07:46:50;;;;;;;19.42;10.25;;;7.50;99.90;;;6.71;100.00;102006.50;4178550;28;20409;-71
2024/01/29 07:48:51;;;;;;;21.65;11.80;;;7.50;99.90;;;6.67;100.00;102005.00;4177755;28;20029;-71
2024/01/29 07:50:52;;;;;;;19.10;11.35;;;7.40;99.90;;;6.61;100.00;102008.88;4183438;28;20373;-71
2024/01/29 07:52:53;;;;;;;17.17;9.93;;;7.40;99.90;;;6.57;100.00;102009.19;4183696;28;20122;-71
2024/01/29 07:54:53;;;;;;;17.08;10.23;;;7.30;99.90;;;6.53;100.00;102018.19;4183511;28;20024;-71
2024/01/29 07:56:54;;;;;;;19.20;9.90;;;7.20;99.90;;;6.49;100.00;102016.69;4184553;28;20083;-71
2024/01/29 07:58:55;;;;;;;15.10;9.25;;;7.20;99.90;;;6.44;100.00;102009.13;4183875;28;20511;-71
2024/01/29 08:00:56;;;;;;;20.00;11.57;;;7.20;99.90;;;6.46;100.00;102025.59;4184241;28;20025;-71
2024/01/29 08:02:57;;;;;;;19.58;10.68;;;7.20;99.90;;;6.46;100.00;102027.38;4185140;28;20024;-71
2024/01/29 08:04:57;;;;;;;17.30;10.07;;;7.20;99.90;;;6.44;100.00;102024.88;4185493;28;20025;-71
2024/01/29 08:06:59;;;;;;;16.80;10.27;;;7.20;99.90;;;6.42;100.00;102033.78;4185402;28;20132;-71
2024/01/29 08:08:59;;;;;;;17.83;10.32;;;7.10;99.90;;;6.41;100.00;102030.31;4183985;28;20071;-71
2024/01/29 08:11:00;;;;;;;18.58;11.23;;;7.10;99.90;;;6.39;100.00;102026.91;4184169;28;20048;-71
2024/01/29 08:13:02;;;;;;;17.33;10.57;;;7.10;99.90;;;6.39;100.00;102036.59;4184030;28;20044;-71
2024/01/29 08:15:05;;;;;;;17.85;10.55;;;7.10;99.90;;;6.40;100.00;102027.75;4185298;28;20450;-71
2024/01/29 08:17:06;;;;;;;19.70;11.00;;;7.10;99.90;;;6.44;100.00;102024.03;4182821;28;20522;-71
2024/01/29 08:19:07;;;;;;;20.25;11.55;;;7.10;99.90;;;6.45;100.00;102028.34;4185327;28;20025;-71